<?xml version="1.0" encoding="utf-8"?>
<gpx xmlns:xsi="http://www.w3.org/2001/XMLSchema-instance" xmlns:xsd="http://www.w3.org/2001/XMLSchema" version="1.1" creator="Shapelink.com" xmlns="http://www.topografix.com/GPX/1/1" xmlns:gpxtpx="http://www.garmin.com/xmlschemas/TrackPointExtension/v1">
  <metadata>
    <name>Övrigt 1.46 km, 2019-01-31</name>
    <desc></desc>
    <author><name>Marian Moron</name></author> 
    <time>2019-01-31T20:55:34Z</time>
  </metadata>
  <trk>
    <name>Övrigt 1.46 km, 2019-01-31</name>
    <trkseg>
      <trkpt lat="51.22856766615" lon="4.458389355463">
        <ele>2.6</ele>
        <time>2019-01-31T20:55:34Z</time>
      </trkpt>
      <trkpt lat="51.228626171812" lon="4.45855389216">
        <ele>10.6</ele>
        <time>2019-01-31T20:55:45Z</time>
      </trkpt>
      <trkpt lat="51.228650898417" lon="4.458785651695">
        <ele>11.2</ele>
        <time>2019-01-31T20:56:09Z</time>
      </trkpt>
      <trkpt lat="51.228646120734" lon="4.4591708">
        <ele>10.8</ele>
        <time>2019-01-31T20:56:24Z</time>
      </trkpt>
      <trkpt lat="51.228434980673" lon="4.459585452593">
        <ele>9.6</ele>
        <time>2019-01-31T20:57:01Z</time>
      </trkpt>
      <trkpt lat="51.228376894106" lon="4.460166737358">
        <ele>9.4</ele>
        <time>2019-01-31T20:57:29Z</time>
      </trkpt>
      <trkpt lat="51.228322244118" lon="4.460221554984">
        <ele>9.2</ele>
        <time>2019-01-31T20:57:37Z</time>
      </trkpt>
      <trkpt lat="51.228179416542" lon="4.460352731719">
        <ele>7.6</ele>
        <time>2019-01-31T20:58:04Z</time>
      </trkpt>
      <trkpt lat="51.228513016162" lon="4.460795882772">
        <ele>7.6</ele>
        <time>2019-01-31T20:58:33Z</time>
      </trkpt>
      <trkpt lat="51.22858526814" lon="4.461006687557">
        <ele>11.6</ele>
        <time>2019-01-31T20:58:50Z</time>
      </trkpt>
      <trkpt lat="51.22874117148" lon="4.461163764363">
        <ele>15.6</ele>
        <time>2019-01-31T20:59:06Z</time>
      </trkpt>
      <trkpt lat="51.229193961718" lon="4.461302149532">
        <ele>28.2</ele>
        <time>2019-01-31T20:59:37Z</time>
      </trkpt>
      <trkpt lat="51.229284821514" lon="4.461269795398">
        <ele>28</ele>
        <time>2019-01-31T20:59:42Z</time>
      </trkpt>
      <trkpt lat="51.229320863684" lon="4.461202069646">
        <ele>26.6</ele>
        <time>2019-01-31T20:59:44Z</time>
      </trkpt>
      <trkpt lat="51.229506187493" lon="4.461046250125">
        <ele>21.2</ele>
        <time>2019-01-31T21:00:05Z</time>
      </trkpt>
      <trkpt lat="51.22963049107" lon="4.461155298644">
        <ele>20.8</ele>
        <time>2019-01-31T21:00:18Z</time>
      </trkpt>
      <trkpt lat="51.229837021086" lon="4.461540279311">
        <ele>18.2</ele>
        <time>2019-01-31T21:00:44Z</time>
      </trkpt>
      <trkpt lat="51.230051430088" lon="4.462082420603">
        <ele>14.2</ele>
        <time>2019-01-31T21:01:23Z</time>
      </trkpt>
      <trkpt lat="51.230062242739" lon="4.462082420603">
        <ele>14.2</ele>
        <time>2019-01-31T21:01:24Z</time>
      </trkpt>
      <trkpt lat="51.230510925846" lon="4.461970270781">
        <ele>23</ele>
        <time>2019-01-31T21:01:53Z</time>
      </trkpt>
      <trkpt lat="51.230822564888" lon="4.461862647185">
        <ele>18.2</ele>
        <time>2019-01-31T21:02:15Z</time>
      </trkpt>
      <trkpt lat="51.231226488649" lon="4.461649411649">
        <ele>11.2</ele>
        <time>2019-01-31T21:02:50Z</time>
      </trkpt>
      <trkpt lat="51.231270158348" lon="4.461630636193">
        <ele>12.2</ele>
        <time>2019-01-31T21:02:54Z</time>
      </trkpt>
      <trkpt lat="51.231659413784" lon="4.461766255335">
        <ele>9.8</ele>
        <time>2019-01-31T21:03:27Z</time>
      </trkpt>
      <trkpt lat="51.231624042166" lon="4.462475447894">
        <ele>10.4</ele>
        <time>2019-01-31T21:04:01Z</time>
      </trkpt>
      <trkpt lat="51.231625718546" lon="4.462736208803">
        <ele>4.6</ele>
        <time>2019-01-31T21:04:21Z</time>
      </trkpt>
      <trkpt lat="51.231502504616" lon="4.463363007285">
        <ele>8.4</ele>
        <time>2019-01-31T21:04:57Z</time>
      </trkpt>
      <trkpt lat="51.231523207909" lon="4.463381447465">
        <ele>9</ele>
        <time>2019-01-31T21:04:59Z</time>
      </trkpt>
      <trkpt lat="51.231557741337" lon="4.463416651445">
        <ele>7.8</ele>
        <time>2019-01-31T21:05:10Z</time>
      </trkpt>
      <trkpt lat="51.231566039418" lon="4.463419417472">
        <ele>9</ele>
        <time>2019-01-31T21:05:12Z</time>
      </trkpt>
      <trkpt lat="51.231822525558" lon="4.463646315505">
        <ele>14.6</ele>
        <time>2019-01-31T21:05:49Z</time>
      </trkpt>
      <trkpt lat="51.232033330343" lon="4.463009039648">
        <ele>10</ele>
        <time>2019-01-31T21:06:23Z</time>
      </trkpt>
      <trkpt lat="51.232083789381" lon="4.462679044245">
        <ele>6.4</ele>
        <time>2019-01-31T21:06:43Z</time>
      </trkpt>
      <trkpt lat="51.232115472963" lon="4.461964235813">
        <ele>5</ele>
        <time>2019-01-31T21:07:18Z</time>
      </trkpt>
      <trkpt lat="51.232101642828" lon="4.461792490682">
        <ele>5.6</ele>
        <time>2019-01-31T21:07:29Z</time>
      </trkpt>
      <trkpt lat="51.23203274361" lon="4.461622841026">
        <ele>8.8</ele>
        <time>2019-01-31T21:07:40Z</time>
      </trkpt>
      <trkpt lat="51.232018745837" lon="4.461575064196">
        <ele>10.2</ele>
        <time>2019-01-31T21:07:44Z</time>
      </trkpt>
      <trkpt lat="51.231851191656" lon="4.461490239368">
        <ele>13</ele>
        <time>2019-01-31T21:07:59Z</time>
      </trkpt>
      <trkpt lat="51.231836774788" lon="4.461425614919">
        <ele>12.4</ele>
        <time>2019-01-31T21:08:02Z</time>
      </trkpt>
      <trkpt lat="51.231860411746" lon="4.461069132712">
        <ele>7.2</ele>
        <time>2019-01-31T21:08:18Z</time>
      </trkpt>
      <trkpt lat="51.231836942426" lon="4.460495643114">
        <ele>5.6</ele>
        <time>2019-01-31T21:08:48Z</time>
      </trkpt>
      <trkpt lat="51.231748681019" lon="4.45983716105">
        <ele>7.8</ele>
        <time>2019-01-31T21:09:22Z</time>
      </trkpt>
      <trkpt lat="51.231678608335" lon="4.459510937502">
        <ele>2.4</ele>
        <time>2019-01-31T21:09:40Z</time>
      </trkpt>
      <trkpt lat="51.231525051927" lon="4.458832674154">
        <ele>1.6</ele>
        <time>2019-01-31T21:10:12Z</time>
      </trkpt>
      <trkpt lat="51.231452129397" lon="4.458502427294">
        <ele>2.2</ele>
        <time>2019-01-31T21:10:30Z</time>
      </trkpt>
      <trkpt lat="51.23138146998" lon="4.458524723148">
        <ele>3</ele>
        <time>2019-01-31T21:10:37Z</time>
      </trkpt>
      <trkpt lat="51.231273259651" lon="4.458509551909">
        <ele>9.4</ele>
        <time>2019-01-31T21:10:49Z</time>
      </trkpt>
      <trkpt lat="51.231235038187" lon="4.458323557548">
        <ele>7.4</ele>
        <time>2019-01-31T21:11:01Z</time>
      </trkpt>
      <trkpt lat="51.231164630227" lon="4.457903708177">
        <ele>3</ele>
        <time>2019-01-31T21:11:24Z</time>
      </trkpt>
      <trkpt lat="51.231137891966" lon="4.457632386074">
        <ele>3.4</ele>
        <time>2019-01-31T21:11:37Z</time>
      </trkpt>
      <trkpt lat="51.231116769578" lon="4.457622746889">
        <ele>2.2</ele>
        <time>2019-01-31T21:11:39Z</time>
      </trkpt>
      <trkpt lat="51.231033034397" lon="4.457635152101">
        <ele>2</ele>
        <time>2019-01-31T21:11:49Z</time>
      </trkpt>
      <trkpt lat="51.230573622458" lon="4.457776806211">
        <ele>0</ele>
        <time>2019-01-31T21:12:21Z</time>
      </trkpt>
      <trkpt lat="51.230104403696" lon="4.457832378208">
        <ele>1.4</ele>
        <time>2019-01-31T21:12:49Z</time>
      </trkpt>
      <trkpt lat="51.229667958163" lon="4.457978810001">
        <ele>1.2</ele>
        <time>2019-01-31T21:13:30Z</time>
      </trkpt>
      <trkpt lat="51.229615319831" lon="4.457998088371">
        <ele>5.2</ele>
        <time>2019-01-31T21:13:52Z</time>
      </trkpt>
    </trkseg>
  </trk>
</gpx>